High Springs, Florida
Current Conditions -  °F | °C
As of 1:53 AM on Thursday 18 Dec 2014 (Local Time) from KGNV Reporting Station
Clear Clear  
Wind Chill: 43°   Ceiling: Unl
Heat Index: 47°   Visibility: 10mi
Dew Point: 44°   Wind: 9mph
Humidity: 90%   Direction: 320°NW
Pressure: 30.15"   Gusts: NA
Location:  29.82°N, 82.59°W
Report Text: KGNV 180653Z AUTO 32008KT 10SM CLR 08/07 A3015 RMK AO2 SLP210 T00830067
Loading
Personal Weather Stations






























Interactive Weather Map New forecast layout! Learn more

10-Day Weather Forecast

Advertisements
Track Severe Weather on mobile